sensor_id;sensor_type;location;lat;lon;timestamp;P1;durP1;ratioP1;P2;durP2;ratioP2
22111;SDS011;11222;50.872;4.312;2023-04-25T00:02:17;17.60;;;6.13;;
22111;SDS011;11222;50.872;4.312;2023-04-25T00:04:44;30.13;;;6.53;;
22111;SDS011;11222;50.872;4.312;2023-04-25T00:07:10;14.18;;;5.95;;
22111;SDS011;11222;50.872;4.312;2023-04-25T00:09:36;16.42;;;5.72;;
22111;SDS011;11222;50.872;4.312;2023-04-25T00:12:01;15.27;;;5.28;;
22111;SDS011;11222;50.872;4.312;2023-04-25T00:14:27;20.75;;;6.03;;
22111;SDS011;11222;50.872;4.312;2023-04-25T00:16:54;28.35;;;5.90;;
22111;SDS011;11222;50.872;4.312;2023-04-25T00:19:19;19.00;;;5.78;;
22111;SDS011;11222;50.872;4.312;2023-04-25T00:21:45;18.73;;;5.50;;
22111;SDS011;11222;50.872;4.312;2023-04-25T00:24:11;18.38;;;5.75;;
22111;SDS011;11222;50.872;4.312;2023-04-25T00:26:37;16.17;;;5.68;;
22111;SDS011;11222;50.872;4.312;2023-04-25T00:29:03;15.05;;;5.57;;
22111;SDS011;11222;50.872;4.312;2023-04-25T00:31:29;17.73;;;6.18;;
22111;SDS011;11222;50.872;4.312;2023-04-25T00:33:55;17.48;;;5.72;;
22111;SDS011;11222;50.872;4.312;2023-04-25T00:36:21;19.92;;;6.53;;
22111;SDS011;11222;50.872;4.312;2023-04-25T00:38:47;14.35;;;5.75;;
22111;SDS011;11222;50.872;4.312;2023-04-25T00:41:12;16.73;;;5.82;;
22111;SDS011;11222;50.872;4.312;2023-04-25T00:43:38;18.33;;;6.32;;
22111;SDS011;11222;50.872;4.312;2023-04-25T00:46:05;19.00;;;6.82;;
22111;SDS011;11222;50.872;4.312;2023-04-25T00:48:30;16.98;;;6.47;;
22111;SDS011;11222;50.872;4.312;2023-04-25T00:50:57;19.55;;;6.30;;
22111;SDS011;11222;50.872;4.312;2023-04-25T00:53:24;15.98;;;5.85;;
22111;SDS011;11222;50.872;4.312;2023-04-25T00:55:51;15.98;;;5.97;;
22111;SDS011;11222;50.872;4.312;2023-04-25T00:58:17;16.73;;;6.53;;
22111;SDS011;11222;50.872;4.312;2023-04-25T01:00:47;19.10;;;6.35;;
22111;SDS011;11222;50.872;4.312;2023-04-25T01:03:15;21.45;;;6.72;;
22111;SDS011;11222;50.872;4.312;2023-04-25T01:05:42;20.40;;;6.40;;
22111;SDS011;11222;50.872;4.312;2023-04-25T01:08:08;17.92;;;6.40;;
22111;SDS011;11222;50.872;4.312;2023-04-25T01:10:35;17.65;;;6.63;;
22111;SDS011;11222;50.872;4.312;2023-04-25T01:13:01;19.13;;;6.15;;
22111;SDS011;11222;50.872;4.312;2023-04-25T01:15:27;23.83;;;6.20;;
22111;SDS011;11222;50.872;4.312;2023-04-25T01:17:53;26.80;;;7.05;;
22111;SDS011;11222;50.872;4.312;2023-04-25T01:20:20;25.73;;;6.63;;
22111;SDS011;11222;50.872;4.312;2023-04-25T01:22:48;20.55;;;6.50;;
22111;SDS011;11222;50.872;4.312;2023-04-25T01:25:15;18.65;;;6.72;;
22111;SDS011;11222;50.872;4.312;2023-04-25T01:27:41;17.67;;;6.65;;
22111;SDS011;11222;50.872;4.312;2023-04-25T01:30:07;18.77;;;7.30;;
22111;SDS011;11222;50.872;4.312;2023-04-25T01:32:33;20.38;;;6.78;;
22111;SDS011;11222;50.872;4.312;2023-04-25T01:35:12;20.05;;;6.35;;
22111;SDS011;11222;50.872;4.312;2023-04-25T01:37:41;18.55;;;6.40;;
22111;SDS011;11222;50.872;4.312;2023-04-25T01:40:08;17.58;;;6.55;;
22111;SDS011;11222;50.872;4.312;2023-04-25T01:42:36;21.45;;;6.82;;
22111;SDS011;11222;50.872;4.312;2023-04-25T01:45:03;26.77;;;6.40;;
22111;SDS011;11222;50.872;4.312;2023-04-25T01:47:30;19.42;;;6.97;;
22111;SDS011;11222;50.872;4.312;2023-04-25T01:49:56;18.70;;;6.03;;
22111;SDS011;11222;50.872;4.312;2023-04-25T01:52:21;20.20;;;6.90;;
22111;SDS011;11222;50.872;4.312;2023-04-25T01:54:47;24.85;;;6.95;;
22111;SDS011;11222;50.872;4.312;2023-04-25T01:57:15;19.20;;;6.90;;
22111;SDS011;11222;50.872;4.312;2023-04-25T01:59:43;20.23;;;6.40;;
22111;SDS011;11222;50.872;4.312;2023-04-25T02:02:08;19.92;;;6.60;;
22111;SDS011;11222;50.872;4.312;2023-04-25T02:04:34;30.92;;;11.38;;
22111;SDS011;11222;50.872;4.312;2023-04-25T02:07:00;17.60;;;6.88;;
22111;SDS011;11222;50.872;4.312;2023-04-25T02:09:26;23.83;;;8.02;;
22111;SDS011;11222;50.872;4.312;2023-04-25T02:11:52;19.20;;;6.75;;
22111;SDS011;11222;50.872;4.312;2023-04-25T02:14:18;22.30;;;11.52;;
22111;SDS011;11222;50.872;4.312;2023-04-25T02:16:43;24.67;;;7.57;;
22111;SDS011;11222;50.872;4.312;2023-04-25T02:19:10;21.35;;;6.57;;
22111;SDS011;11222;50.872;4.312;2023-04-25T02:21:36;21.95;;;7.60;;
22111;SDS011;11222;50.872;4.312;2023-04-25T02:24:02;17.65;;;7.20;;
22111;SDS011;11222;50.872;4.312;2023-04-25T02:26:29;20.42;;;8.13;;
22111;SDS011;11222;50.872;4.312;2023-04-25T02:28:55;24.67;;;6.95;;
22111;SDS011;11222;50.872;4.312;2023-04-25T02:31:21;29.95;;;15.38;;
22111;SDS011;11222;50.872;4.312;2023-04-25T02:33:47;26.05;;;8.77;;
22111;SDS011;11222;50.872;4.312;2023-04-25T02:36:13;22.40;;;8.00;;
22111;SDS011;11222;50.872;4.312;2023-04-25T02:38:39;27.65;;;8.30;;
22111;SDS011;11222;50.872;4.312;2023-04-25T02:41:05;27.88;;;8.63;;
22111;SDS011;11222;50.872;4.312;2023-04-25T02:43:31;24.05;;;7.72;;
22111;SDS011;11222;50.872;4.312;2023-04-25T02:45:57;25.35;;;8.60;;
22111;SDS011;11222;50.872;4.312;2023-04-25T02:48:22;21.80;;;7.13;;
22111;SDS011;11222;50.872;4.312;2023-04-25T02:50:48;27.02;;;7.63;;
22111;SDS011;11222;50.872;4.312;2023-04-25T02:53:13;15.55;;;6.70;;
22111;SDS011;11222;50.872;4.312;2023-04-25T02:55:39;21.58;;;6.30;;
22111;SDS011;11222;50.872;4.312;2023-04-25T02:58:05;25.67;;;6.68;;
22111;SDS011;11222;50.872;4.312;2023-04-25T03:00:30;19.80;;;6.03;;
22111;SDS011;11222;50.872;4.312;2023-04-25T03:02:56;24.85;;;7.28;;
22111;SDS011;11222;50.872;4.312;2023-04-25T03:05:22;18.98;;;7.18;;
22111;SDS011;11222;50.872;4.312;2023-04-25T03:07:47;19.65;;;7.10;;
22111;SDS011;11222;50.872;4.312;2023-04-25T03:10:13;29.02;;;8.90;;
22111;SDS011;11222;50.872;4.312;2023-04-25T03:12:39;19.17;;;6.65;;
22111;SDS011;11222;50.872;4.312;2023-04-25T03:15:04;24.83;;;6.38;;
22111;SDS011;11222;50.872;4.312;2023-04-25T03:17:30;24.08;;;7.35;;
22111;SDS011;11222;50.872;4.312;2023-04-25T03:19:57;25.40;;;6.72;;
22111;SDS011;11222;50.872;4.312;2023-04-25T03:22:22;24.52;;;6.85;;
22111;SDS011;11222;50.872;4.312;2023-04-25T03:24:49;23.20;;;6.60;;
22111;SDS011;11222;50.872;4.312;2023-04-25T03:27:15;16.92;;;6.93;;
22111;SDS011;11222;50.872;4.312;2023-04-25T03:29:41;29.38;;;7.53;;
22111;SDS011;11222;50.872;4.312;2023-04-25T03:32:07;25.50;;;6.93;;
22111;SDS011;11222;50.872;4.312;2023-04-25T03:34:32;21.42;;;6.57;;
22111;SDS011;11222;50.872;4.312;2023-04-25T03:36:58;24.65;;;6.57;;
22111;SDS011;11222;50.872;4.312;2023-04-25T03:39:24;17.55;;;6.03;;
22111;SDS011;11222;50.872;4.312;2023-04-25T03:41:50;17.70;;;6.15;;
22111;SDS011;11222;50.872;4.312;2023-04-25T03:44:16;21.02;;;7.07;;
22111;SDS011;11222;50.872;4.312;2023-04-25T03:46:41;16.95;;;5.80;;
22111;SDS011;11222;50.872;4.312;2023-04-25T03:49:07;19.58;;;5.90;;
22111;SDS011;11222;50.872;4.312;2023-04-25T03:51:33;20.65;;;6.32;;
22111;SDS011;11222;50.872;4.312;2023-04-25T03:53:58;26.30;;;6.18;;
22111;SDS011;11222;50.872;4.312;2023-04-25T03:56:24;20.77;;;6.22;;
22111;SDS011;11222;50.872;4.312;2023-04-25T03:58:50;20.40;;;5.93;;
22111;SDS011;11222;50.872;4.312;2023-04-25T04:01:15;21.60;;;5.75;;
22111;SDS011;11222;50.872;4.312;2023-04-25T04:03:41;18.08;;;5.43;;
22111;SDS011;11222;50.872;4.312;2023-04-25T04:06:07;20.33;;;5.75;;
22111;SDS011;11222;50.872;4.312;2023-04-25T04:08:33;18.02;;;5.70;;
22111;SDS011;11222;50.872;4.312;2023-04-25T04:10:59;20.33;;;5.63;;
22111;SDS011;11222;50.872;4.312;2023-04-25T04:13:25;19.27;;;5.63;;
22111;SDS011;11222;50.872;4.312;2023-04-25T04:15:51;21.55;;;5.75;;
22111;SDS011;11222;50.872;4.312;2023-04-25T04:18:17;16.75;;;5.70;;
22111;SDS011;11222;50.872;4.312;2023-04-25T04:20:43;18.60;;;5.75;;
22111;SDS011;11222;50.872;4.312;2023-04-25T04:23:09;18.83;;;5.82;;
22111;SDS011;11222;50.872;4.312;2023-04-25T04:25:35;16.33;;;5.25;;
22111;SDS011;11222;50.872;4.312;2023-04-25T04:28:01;10.45;;;4.97;;
22111;SDS011;11222;50.872;4.312;2023-04-25T04:30:27;19.58;;;5.45;;
22111;SDS011;11222;50.872;4.312;2023-04-25T04:32:56;17.70;;;4.95;;
22111;SDS011;11222;50.872;4.312;2023-04-25T04:35:22;17.88;;;5.20;;
22111;SDS011;11222;50.872;4.312;2023-04-25T04:37:49;17.50;;;6.03;;
22111;SDS011;11222;50.872;4.312;2023-04-25T04:40:14;17.73;;;6.15;;
22111;SDS011;11222;50.872;4.312;2023-04-25T04:42:41;21.50;;;6.35;;
22111;SDS011;11222;50.872;4.312;2023-04-25T04:45:07;21.85;;;5.60;;
22111;SDS011;11222;50.872;4.312;2023-04-25T04:47:35;18.48;;;6.05;;
22111;SDS011;11222;50.872;4.312;2023-04-25T04:50:02;18.08;;;5.80;;
22111;SDS011;11222;50.872;4.312;2023-04-25T04:52:29;18.52;;;5.90;;
22111;SDS011;11222;50.872;4.312;2023-04-25T04:54:55;18.35;;;5.88;;
22111;SDS011;11222;50.872;4.312;2023-04-25T04:57:20;18.70;;;5.75;;
22111;SDS011;11222;50.872;4.312;2023-04-25T04:59:46;17.27;;;5.88;;
22111;SDS011;11222;50.872;4.312;2023-04-25T05:02:12;14.48;;;5.20;;
22111;SDS011;11222;50.872;4.312;2023-04-25T05:04:37;25.75;;;6.10;;
22111;SDS011;11222;50.872;4.312;2023-04-25T05:07:03;18.17;;;5.65;;
22111;SDS011;11222;50.872;4.312;2023-04-25T05:09:29;16.95;;;5.07;;
22111;SDS011;11222;50.872;4.312;2023-04-25T05:11:55;11.98;;;5.20;;
22111;SDS011;11222;50.872;4.312;2023-04-25T05:14:20;15.90;;;5.40;;
22111;SDS011;11222;50.872;4.312;2023-04-25T05:16:47;13.10;;;4.60;;
22111;SDS011;11222;50.872;4.312;2023-04-25T05:19:13;16.40;;;5.55;;
22111;SDS011;11222;50.872;4.312;2023-04-25T05:21:39;14.85;;;4.57;;
22111;SDS011;11222;50.872;4.312;2023-04-25T05:24:04;15.98;;;5.32;;
22111;SDS011;11222;50.872;4.312;2023-04-25T05:26:30;18.13;;;5.55;;
22111;SDS011;11222;50.872;4.312;2023-04-25T05:28:59;16.95;;;5.25;;
22111;SDS011;11222;50.872;4.312;2023-04-25T05:31:25;18.95;;;5.82;;
22111;SDS011;11222;50.872;4.312;2023-04-25T05:33:51;14.45;;;5.13;;
22111;SDS011;11222;50.872;4.312;2023-04-25T05:36:20;23.58;;;5.68;;
22111;SDS011;11222;50.872;4.312;2023-04-25T05:38:46;30.63;;;7.00;;
22111;SDS011;11222;50.872;4.312;2023-04-25T05:41:12;20.88;;;5.70;;
22111;SDS011;11222;50.872;4.312;2023-04-25T05:43:37;17.95;;;5.45;;
22111;SDS011;11222;50.872;4.312;2023-04-25T05:46:04;15.32;;;5.35;;
22111;SDS011;11222;50.872;4.312;2023-04-25T05:48:30;20.25;;;5.78;;
22111;SDS011;11222;50.872;4.312;2023-04-25T05:50:56;14.82;;;5.70;;
22111;SDS011;11222;50.872;4.312;2023-04-25T05:53:22;14.82;;;5.35;;
22111;SDS011;11222;50.872;4.312;2023-04-25T05:55:47;16.05;;;5.10;;
22111;SDS011;11222;50.872;4.312;2023-04-25T05:58:13;19.90;;;5.32;;
22111;SDS011;11222;50.872;4.312;2023-04-25T06:00:38;17.02;;;5.88;;
22111;SDS011;11222;50.872;4.312;2023-04-25T06:03:06;16.02;;;5.15;;
22111;SDS011;11222;50.872;4.312;2023-04-25T06:05:34;34.17;;;7.63;;
22111;SDS011;11222;50.872;4.312;2023-04-25T06:08:00;15.18;;;5.07;;
22111;SDS011;11222;50.872;4.312;2023-04-25T06:10:26;12.07;;;5.28;;
22111;SDS011;11222;50.872;4.312;2023-04-25T06:12:51;11.93;;;5.18;;
22111;SDS011;11222;50.872;4.312;2023-04-25T06:15:17;20.17;;;5.25;;
22111;SDS011;11222;50.872;4.312;2023-04-25T06:17:43;14.45;;;5.03;;
22111;SDS011;11222;50.872;4.312;2023-04-25T06:20:08;12.18;;;4.80;;
22111;SDS011;11222;50.872;4.312;2023-04-25T06:22:35;15.45;;;4.97;;
22111;SDS011;11222;50.872;4.312;2023-04-25T06:25:00;15.43;;;4.82;;
22111;SDS011;11222;50.872;4.312;2023-04-25T06:27:28;12.00;;;4.97;;
22111;SDS011;11222;50.872;4.312;2023-04-25T06:29:54;19.67;;;5.38;;
22111;SDS011;11222;50.872;4.312;2023-04-25T06:32:20;10.98;;;4.28;;
22111;SDS011;11222;50.872;4.312;2023-04-25T06:34:46;13.98;;;4.85;;
22111;SDS011;11222;50.872;4.312;2023-04-25T06:37:11;16.33;;;5.32;;
22111;SDS011;11222;50.872;4.312;2023-04-25T06:39:37;18.98;;;5.25;;
22111;SDS011;11222;50.872;4.312;2023-04-25T06:42:03;13.93;;;6.28;;
22111;SDS011;11222;50.872;4.312;2023-04-25T06:44:28;13.15;;;5.15;;
22111;SDS011;11222;50.872;4.312;2023-04-25T06:46:54;17.58;;;5.10;;
22111;SDS011;11222;50.872;4.312;2023-04-25T06:49:20;11.05;;;5.53;;
22111;SDS011;11222;50.872;4.312;2023-04-25T06:51:46;18.52;;;5.13;;
22111;SDS011;11222;50.872;4.312;2023-04-25T06:54:11;19.60;;;5.47;;
22111;SDS011;11222;50.872;4.312;2023-04-25T06:56:37;14.65;;;5.07;;
22111;SDS011;11222;50.872;4.312;2023-04-25T06:59:03;18.50;;;6.03;;
22111;SDS011;11222;50.872;4.312;2023-04-25T07:01:28;21.35;;;5.10;;
22111;SDS011;11222;50.872;4.312;2023-04-25T07:03:54;19.98;;;6.25;;
22111;SDS011;11222;50.872;4.312;2023-04-25T07:06:20;18.80;;;4.90;;
22111;SDS011;11222;50.872;4.312;2023-04-25T07:08:46;10.50;;;4.82;;
22111;SDS011;11222;50.872;4.312;2023-04-25T07:11:11;15.30;;;5.07;;
22111;SDS011;11222;50.872;4.312;2023-04-25T07:13:37;18.20;;;4.95;;
22111;SDS011;11222;50.872;4.312;2023-04-25T07:16:03;16.65;;;4.60;;
22111;SDS011;11222;50.872;4.312;2023-04-25T07:18:29;13.75;;;4.60;;
22111;SDS011;11222;50.872;4.312;2023-04-25T07:20:54;17.08;;;4.60;;
22111;SDS011;11222;50.872;4.312;2023-04-25T07:23:20;9.10;;;4.03;;
22111;SDS011;11222;50.872;4.312;2023-04-25T07:25:46;10.15;;;3.97;;
22111;SDS011;11222;50.872;4.312;2023-04-25T07:28:11;14.80;;;4.28;;
22111;SDS011;11222;50.872;4.312;2023-04-25T07:30:37;13.80;;;4.68;;
22111;SDS011;11222;50.872;4.312;2023-04-25T07:33:03;12.95;;;4.75;;
22111;SDS011;11222;50.872;4.312;2023-04-25T07:35:29;11.93;;;3.75;;
22111;SDS011;11222;50.872;4.312;2023-04-25T07:37:54;9.70;;;3.63;;
22111;SDS011;11222;50.872;4.312;2023-04-25T07:40:20;14.18;;;3.70;;
22111;SDS011;11222;50.872;4.312;2023-04-25T07:42:46;9.77;;;3.70;;
22111;SDS011;11222;50.872;4.312;2023-04-25T07:45:12;15.77;;;4.22;;
22111;SDS011;11222;50.872;4.312;2023-04-25T07:47:38;11.07;;;3.70;;
22111;SDS011;11222;50.872;4.312;2023-04-25T07:50:04;18.35;;;5.32;;
22111;SDS011;11222;50.872;4.312;2023-04-25T07:52:30;15.65;;;4.22;;
22111;SDS011;11222;50.872;4.312;2023-04-25T07:54:56;11.00;;;3.90;;
22111;SDS011;11222;50.872;4.312;2023-04-25T07:57:23;10.55;;;3.60;;
22111;SDS011;11222;50.872;4.312;2023-04-25T07:59:49;12.70;;;4.13;;
22111;SDS011;11222;50.872;4.312;2023-04-25T08:02:15;9.07;;;3.67;;
22111;SDS011;11222;50.872;4.312;2023-04-25T08:04:40;13.15;;;3.72;;
22111;SDS011;11222;50.872;4.312;2023-04-25T08:07:06;14.23;;;4.28;;
22111;SDS011;11222;50.872;4.312;2023-04-25T08:09:32;11.07;;;3.70;;
22111;SDS011;11222;50.872;4.312;2023-04-25T08:12:01;13.32;;;4.20;;
22111;SDS011;11222;50.872;4.312;2023-04-25T08:14:28;10.07;;;3.78;;
22111;SDS011;11222;50.872;4.312;2023-04-25T08:16:56;12.25;;;3.90;;
22111;SDS011;11222;50.872;4.312;2023-04-25T08:19:21;10.13;;;3.90;;
22111;SDS011;11222;50.872;4.312;2023-04-25T08:21:47;11.70;;;4.03;;
22111;SDS011;11222;50.872;4.312;2023-04-25T08:24:13;10.88;;;3.58;;
22111;SDS011;11222;50.872;4.312;2023-04-25T08:26:38;7.82;;;3.30;;
22111;SDS011;11222;50.872;4.312;2023-04-25T08:29:05;13.30;;;3.70;;
22111;SDS011;11222;50.872;4.312;2023-04-25T08:31:31;12.93;;;3.75;;
22111;SDS011;11222;50.872;4.312;2023-04-25T08:33:57;8.20;;;3.67;;
22111;SDS011;11222;50.872;4.312;2023-04-25T08:36:22;12.57;;;3.63;;
22111;SDS011;11222;50.872;4.312;2023-04-25T08:38:48;8.18;;;3.60;;
22111;SDS011;11222;50.872;4.312;2023-04-25T08:41:14;9.85;;;3.63;;
22111;SDS011;11222;50.872;4.312;2023-04-25T08:43:42;9.10;;;3.47;;
22111;SDS011;11222;50.872;4.312;2023-04-25T08:46:08;5.75;;;3.28;;
22111;SDS011;11222;50.872;4.312;2023-04-25T08:48:36;6.85;;;3.35;;
22111;SDS011;11222;50.872;4.312;2023-04-25T08:51:02;7.32;;;3.42;;
22111;SDS011;11222;50.872;4.312;2023-04-25T08:53:32;8.02;;;3.33;;
22111;SDS011;11222;50.872;4.312;2023-04-25T08:56:00;9.60;;;3.40;;
22111;SDS011;11222;50.872;4.312;2023-04-25T08:58:29;10.70;;;3.03;;
22111;SDS011;11222;50.872;4.312;2023-04-25T09:00:55;10.65;;;3.15;;
22111;SDS011;11222;50.872;4.312;2023-04-25T09:03:21;11.38;;;3.28;;
22111;SDS011;11222;50.872;4.312;2023-04-25T09:05:47;11.90;;;3.33;;
22111;SDS011;11222;50.872;4.312;2023-04-25T09:08:15;11.70;;;3.13;;
22111;SDS011;11222;50.872;4.312;2023-04-25T09:10:40;9.52;;;3.25;;
22111;SDS011;11222;50.872;4.312;2023-04-25T09:13:13;8.75;;;2.92;;
22111;SDS011;11222;50.872;4.312;2023-04-25T09:15:56;5.93;;;2.60;;
22111;SDS011;11222;50.872;4.312;2023-04-25T09:20:49;7.95;;;2.67;;
22111;SDS011;11222;50.872;4.312;2023-04-25T09:23:16;9.48;;;3.15;;
22111;SDS011;11222;50.872;4.312;2023-04-25T09:25:44;10.95;;;3.25;;
22111;SDS011;11222;50.872;4.312;2023-04-25T09:28:15;8.25;;;2.88;;
22111;SDS011;11222;50.872;4.312;2023-04-25T09:30:41;8.50;;;3.03;;
22111;SDS011;11222;50.872;4.312;2023-04-25T09:33:07;8.82;;;2.78;;
22111;SDS011;11222;50.872;4.312;2023-04-25T09:35:38;6.22;;;2.70;;
22111;SDS011;11222;50.872;4.312;2023-04-25T09:38:11;10.93;;;2.83;;
22111;SDS011;11222;50.872;4.312;2023-04-25T09:40:41;8.10;;;3.05;;
22111;SDS011;11222;50.872;4.312;2023-04-25T09:43:08;9.93;;;3.30;;
22111;SDS011;11222;50.872;4.312;2023-04-25T09:45:44;9.50;;;3.28;;
22111;SDS011;11222;50.872;4.312;2023-04-25T09:48:11;8.40;;;3.28;;
22111;SDS011;11222;50.872;4.312;2023-04-25T09:50:37;9.05;;;3.67;;
22111;SDS011;11222;50.872;4.312;2023-04-25T09:53:04;5.22;;;3.25;;
22111;SDS011;11222;50.872;4.312;2023-04-25T09:55:34;6.20;;;3.78;;
22111;SDS011;11222;50.872;4.312;2023-04-25T09:58:01;7.03;;;3.13;;
22111;SDS011;11222;50.872;4.312;2023-04-25T10:00:31;7.97;;;3.20;;
22111;SDS011;11222;50.872;4.312;2023-04-25T10:02:57;4.45;;;3.10;;
22111;SDS011;11222;50.872;4.312;2023-04-25T10:05:30;7.25;;;3.35;;
22111;SDS011;11222;50.872;4.312;2023-04-25T10:08:01;8.70;;;3.65;;
22111;SDS011;11222;50.872;4.312;2023-04-25T10:10:31;7.25;;;3.30;;
22111;SDS011;11222;50.872;4.312;2023-04-25T10:13:02;5.45;;;3.22;;
22111;SDS011;11222;50.872;4.312;2023-04-25T10:15:32;5.38;;;3.10;;
22111;SDS011;11222;50.872;4.312;2023-04-25T10:18:00;5.88;;;3.33;;
22111;SDS011;11222;50.872;4.312;2023-04-25T10:20:26;6.85;;;3.10;;
22111;SDS011;11222;50.872;4.312;2023-04-25T10:22:53;7.85;;;3.30;;
22111;SDS011;11222;50.872;4.312;2023-04-25T10:25:21;6.85;;;3.33;;
22111;SDS011;11222;50.872;4.312;2023-04-25T10:27:49;5.15;;;3.08;;
22111;SDS011;11222;50.872;4.312;2023-04-25T10:30:16;7.07;;;2.92;;
22111;SDS011;11222;50.872;4.312;2023-04-25T10:32:43;5.45;;;3.15;;
22111;SDS011;11222;50.872;4.312;2023-04-25T10:35:13;7.45;;;3.03;;
22111;SDS011;11222;50.872;4.312;2023-04-25T10:37:57;9.27;;;3.50;;
22111;SDS011;11222;50.872;4.312;2023-04-25T10:40:35;6.57;;;2.92;;
22111;SDS011;11222;50.872;4.312;2023-04-25T10:45:52;8.10;;;2.90;;
22111;SDS011;11222;50.872;4.312;2023-04-25T10:48:28;6.68;;;2.55;;
22111;SDS011;11222;50.872;4.312;2023-04-25T10:51:10;10.02;;;2.97;;
22111;SDS011;11222;50.872;4.312;2023-04-25T10:53:36;7.45;;;2.50;;
22111;SDS011;11222;50.872;4.312;2023-04-25T10:56:09;7.50;;;2.58;;
22111;SDS011;11222;50.872;4.312;2023-04-25T10:58:45;6.88;;;3.22;;
22111;SDS011;11222;50.872;4.312;2023-04-25T11:01:14;7.85;;;2.53;;
22111;SDS011;11222;50.872;4.312;2023-04-25T11:03:44;10.75;;;2.72;;
22111;SDS011;11222;50.872;4.312;2023-04-25T11:06:26;5.78;;;2.83;;
22111;SDS011;11222;50.872;4.312;2023-04-25T11:09:02;9.63;;;2.70;;
22111;SDS011;11222;50.872;4.312;2023-04-25T11:11:28;9.02;;;2.70;;
22111;SDS011;11222;50.872;4.312;2023-04-25T11:13:55;6.97;;;2.47;;
22111;SDS011;11222;50.872;4.312;2023-04-25T11:16:20;6.65;;;2.67;;
22111;SDS011;11222;50.872;4.312;2023-04-25T11:18:50;6.07;;;2.78;;
22111;SDS011;11222;50.872;4.312;2023-04-25T11:21:15;5.32;;;2.55;;
22111;SDS011;11222;50.872;4.312;2023-04-25T11:23:44;8.63;;;2.83;;
22111;SDS011;11222;50.872;4.312;2023-04-25T11:26:11;6.50;;;2.75;;
22111;SDS011;11222;50.872;4.312;2023-04-25T11:28:37;4.45;;;2.53;;
22111;SDS011;11222;50.872;4.312;2023-04-25T11:31:03;5.43;;;3.03;;
22111;SDS011;11222;50.872;4.312;2023-04-25T11:33:29;5.85;;;2.55;;
22111;SDS011;11222;50.872;4.312;2023-04-25T11:35:55;7.10;;;2.75;;
22111;SDS011;11222;50.872;4.312;2023-04-25T11:38:22;6.65;;;2.50;;
22111;SDS011;11222;50.872;4.312;2023-04-25T11:40:54;5.38;;;2.45;;
22111;SDS011;11222;50.872;4.312;2023-04-25T11:43:20;7.07;;;2.70;;
22111;SDS011;11222;50.872;4.312;2023-04-25T11:45:50;7.80;;;2.58;;
22111;SDS011;11222;50.872;4.312;2023-04-25T11:48:17;5.60;;;2.42;;
22111;SDS011;11222;50.872;4.312;2023-04-25T11:50:44;4.10;;;2.47;;
22111;SDS011;11222;50.872;4.312;2023-04-25T11:53:10;5.75;;;2.60;;
22111;SDS011;11222;50.872;4.312;2023-04-25T11:55:36;6.68;;;2.70;;
22111;SDS011;11222;50.872;4.312;2023-04-25T11:58:03;5.22;;;2.67;;
22111;SDS011;11222;50.872;4.312;2023-04-25T12:00:29;9.55;;;3.00;;
22111;SDS011;11222;50.872;4.312;2023-04-25T12:02:56;5.50;;;2.70;;
22111;SDS011;11222;50.872;4.312;2023-04-25T12:05:28;5.35;;;2.70;;
22111;SDS011;11222;50.872;4.312;2023-04-25T12:07:55;5.43;;;3.08;;
22111;SDS011;11222;50.872;4.312;2023-04-25T12:10:21;5.20;;;3.10;;
22111;SDS011;11222;50.872;4.312;2023-04-25T12:12:50;8.90;;;2.90;;
22111;SDS011;11222;50.872;4.312;2023-04-25T12:15:23;4.95;;;2.75;;
22111;SDS011;11222;50.872;4.312;2023-04-25T12:17:51;5.93;;;2.47;;
22111;SDS011;11222;50.872;4.312;2023-04-25T12:20:19;6.40;;;3.03;;
22111;SDS011;11222;50.872;4.312;2023-04-25T12:22:51;4.15;;;2.80;;
22111;SDS011;11222;50.872;4.312;2023-04-25T12:28:10;6.35;;;2.35;;
22111;SDS011;11222;50.872;4.312;2023-04-25T12:31:06;4.18;;;2.20;;
22111;SDS011;11222;50.872;4.312;2023-04-25T12:33:32;5.20;;;2.47;;
22111;SDS011;11222;50.872;4.312;2023-04-25T12:36:03;4.00;;;2.60;;
22111;SDS011;11222;50.872;4.312;2023-04-25T12:38:37;6.22;;;2.40;;
22111;SDS011;11222;50.872;4.312;2023-04-25T12:41:04;4.43;;;2.50;;
22111;SDS011;11222;50.872;4.312;2023-04-25T12:43:30;5.22;;;2.60;;
22111;SDS011;11222;50.872;4.312;2023-04-25T12:45:56;7.88;;;2.70;;
22111;SDS011;11222;50.872;4.312;2023-04-25T12:48:22;5.78;;;2.65;;
22111;SDS011;11222;50.872;4.312;2023-04-25T12:50:48;5.35;;;2.67;;
22111;SDS011;11222;50.872;4.312;2023-04-25T12:53:19;4.90;;;2.75;;
22111;SDS011;11222;50.872;4.312;2023-04-25T12:55:45;6.13;;;2.63;;
22111;SDS011;11222;50.872;4.312;2023-04-25T12:58:12;3.78;;;2.67;;
22111;SDS011;11222;50.872;4.312;2023-04-25T13:00:39;6.40;;;2.72;;
22111;SDS011;11222;50.872;4.312;2023-04-25T13:03:04;6.70;;;3.35;;
22111;SDS011;11222;50.872;4.312;2023-04-25T13:05:30;3.92;;;2.40;;
22111;SDS011;11222;50.872;4.312;2023-04-25T13:07:56;4.13;;;2.40;;
22111;SDS011;11222;50.872;4.312;2023-04-25T13:10:22;4.60;;;2.65;;
22111;SDS011;11222;50.872;4.312;2023-04-25T13:12:48;7.20;;;3.33;;
22111;SDS011;11222;50.872;4.312;2023-04-25T13:15:13;5.45;;;2.65;;
22111;SDS011;11222;50.872;4.312;2023-04-25T13:17:40;4.45;;;2.20;;
22111;SDS011;11222;50.872;4.312;2023-04-25T13:20:07;4.25;;;2.35;;
22111;SDS011;11222;50.872;4.312;2023-04-25T13:22:36;3.38;;;2.60;;
22111;SDS011;11222;50.872;4.312;2023-04-25T13:25:03;5.25;;;2.72;;
22111;SDS011;11222;50.872;4.312;2023-04-25T13:27:30;9.82;;;2.83;;
22111;SDS011;11222;50.872;4.312;2023-04-25T13:29:57;5.72;;;2.95;;
22111;SDS011;11222;50.872;4.312;2023-04-25T13:32:23;3.75;;;2.60;;
22111;SDS011;11222;50.872;4.312;2023-04-25T13:34:50;3.05;;;2.40;;
22111;SDS011;11222;50.872;4.312;2023-04-25T13:37:17;3.33;;;2.25;;
22111;SDS011;11222;50.872;4.312;2023-04-25T13:39:43;4.18;;;2.47;;
22111;SDS011;11222;50.872;4.312;2023-04-25T13:42:09;6.68;;;2.60;;
22111;SDS011;11222;50.872;4.312;2023-04-25T13:44:36;4.97;;;2.25;;
22111;SDS011;11222;50.872;4.312;2023-04-25T13:47:01;8.40;;;2.53;;
22111;SDS011;11222;50.872;4.312;2023-04-25T13:49:27;3.90;;;2.28;;
22111;SDS011;11222;50.872;4.312;2023-04-25T13:51:53;4.95;;;2.50;;
22111;SDS011;11222;50.872;4.312;2023-04-25T13:54:19;6.80;;;2.20;;
22111;SDS011;11222;50.872;4.312;2023-04-25T13:56:45;4.95;;;2.40;;
22111;SDS011;11222;50.872;4.312;2023-04-25T13:59:10;5.50;;;2.60;;
22111;SDS011;11222;50.872;4.312;2023-04-25T14:01:36;5.97;;;2.45;;
22111;SDS011;11222;50.872;4.312;2023-04-25T14:04:02;5.38;;;2.35;;
22111;SDS011;11222;50.872;4.312;2023-04-25T14:06:31;6.20;;;2.67;;
22111;SDS011;11222;50.872;4.312;2023-04-25T14:08:57;7.15;;;2.78;;
22111;SDS011;11222;50.872;4.312;2023-04-25T14:11:23;6.07;;;2.78;;
22111;SDS011;11222;50.872;4.312;2023-04-25T14:13:50;5.28;;;2.38;;
22111;SDS011;11222;50.872;4.312;2023-04-25T14:16:16;4.18;;;2.55;;
22111;SDS011;11222;50.872;4.312;2023-04-25T14:18:41;5.22;;;3.20;;
22111;SDS011;11222;50.872;4.312;2023-04-25T14:21:07;4.22;;;2.55;;
22111;SDS011;11222;50.872;4.312;2023-04-25T14:23:33;3.63;;;2.35;;
22111;SDS011;11222;50.872;4.312;2023-04-25T14:25:58;4.78;;;2.65;;
22111;SDS011;11222;50.872;4.312;2023-04-25T14:28:24;5.47;;;2.42;;
22111;SDS011;11222;50.872;4.312;2023-04-25T14:30:50;9.27;;;3.13;;
22111;SDS011;11222;50.872;4.312;2023-04-25T14:33:15;5.30;;;2.72;;
22111;SDS011;11222;50.872;4.312;2023-04-25T14:35:41;6.38;;;3.40;;
22111;SDS011;11222;50.872;4.312;2023-04-25T14:38:06;5.97;;;2.58;;
22111;SDS011;11222;50.872;4.312;2023-04-25T14:40:32;8.73;;;2.72;;
22111;SDS011;11222;50.872;4.312;2023-04-25T14:42:58;4.72;;;2.42;;
22111;SDS011;11222;50.872;4.312;2023-04-25T14:45:24;4.35;;;2.50;;
22111;SDS011;11222;50.872;4.312;2023-04-25T14:47:49;6.30;;;2.28;;